createdAt,value
2019-03-27T00:01:02.531Z,9.00
2019-03-27T00:03:29.509Z,9.00
2019-03-27T00:05:56.537Z,9.00
2019-03-27T00:08:23.603Z,9.00
2019-03-27T00:10:50.677Z,9.00
2019-03-27T00:13:17.722Z,9.00
2019-03-27T00:15:44.801Z,8.90
2019-03-27T00:18:11.822Z,8.90
2019-03-27T00:20:38.928Z,8.90
2019-03-27T00:23:05.965Z,8.90
2019-03-27T00:25:33.101Z,8.90
2019-03-27T00:28:00.186Z,8.90
2019-03-27T00:30:28.169Z,8.90
2019-03-27T00:32:55.333Z,8.90
2019-03-27T00:35:22.431Z,8.80
2019-03-27T00:37:49.575Z,8.80
2019-03-27T00:40:16.797Z,8.70
2019-03-27T00:42:43.884Z,8.70
2019-03-27T00:45:11.446Z,8.70
2019-03-27T00:47:38.559Z,8.60
2019-03-27T00:50:06.703Z,8.60
2019-03-27T00:52:33.837Z,8.50
2019-03-27T00:55:00.960Z,8.50
2019-03-27T00:57:28.204Z,8.50
2019-03-27T00:59:55.349Z,8.50
2019-03-27T01:02:22.596Z,8.50
2019-03-27T01:04:49.863Z,8.40
2019-03-27T01:07:17.049Z,8.30
2019-03-27T01:09:44.320Z,8.30
2019-03-27T01:12:11.586Z,8.30
2019-03-27T01:14:38.772Z,8.30
2019-03-27T01:17:06.393Z,8.30
2019-03-27T01:19:34.655Z,8.20
2019-03-27T01:22:01.864Z,8.20
2019-03-27T01:24:29.000Z,8.10
2019-03-27T01:26:58.563Z,8.00
2019-03-27T01:29:26.498Z,8.00
2019-03-27T01:31:59.155Z,8.00
2019-03-27T01:34:26.361Z,8.00
2019-03-27T01:36:53.408Z,8.00
2019-03-27T01:39:20.502Z,8.00
2019-03-27T01:41:47.464Z,8.10
2019-03-27T01:44:14.493Z,8.10
2019-03-27T01:46:41.571Z,8.10
2019-03-27T01:49:08.645Z,8.10
2019-03-27T01:51:35.761Z,8.10
2019-03-27T01:54:02.823Z,8.10
2019-03-27T01:56:29.989Z,8.10
2019-03-27T01:58:57.013Z,8.10
2019-03-27T02:01:24.261Z,8.10
2019-03-27T02:03:51.335Z,8.10
2019-03-27T02:06:18.425Z,8.10
2019-03-27T02:08:45.462Z,8.10
2019-03-27T02:11:12.489Z,8.10
2019-03-27T02:13:39.641Z,8.20
2019-03-27T02:16:07.498Z,8.20
2019-03-27T02:18:35.717Z,8.20
2019-03-27T02:21:02.913Z,8.20
2019-03-27T02:23:30.169Z,8.20
2019-03-27T02:25:57.245Z,8.20
2019-03-27T02:28:24.394Z,8.20
2019-03-27T02:30:51.630Z,8.20
2019-03-27T02:33:18.874Z,8.20
2019-03-27T02:35:45.970Z,8.20
2019-03-27T02:38:13.164Z,8.20
2019-03-27T02:40:40.324Z,8.20
2019-03-27T02:43:09.821Z,8.20
2019-03-27T02:45:36.912Z,8.20
2019-03-27T02:48:04.067Z,8.10
2019-03-27T02:50:31.198Z,8.20
2019-03-27T02:52:58.277Z,8.10
2019-03-27T02:55:25.298Z,8.20
2019-03-27T02:57:52.454Z,8.20
2019-03-27T03:00:19.683Z,8.30
2019-03-27T03:02:46.772Z,8.40
2019-03-27T03:05:14.082Z,8.40
2019-03-27T03:07:41.121Z,8.50
2019-03-27T03:10:09.161Z,8.50
2019-03-27T03:12:36.192Z,8.50
2019-03-27T03:15:04.381Z,8.50
2019-03-27T03:17:31.428Z,8.50
2019-03-27T03:19:58.414Z,8.50
2019-03-27T03:22:25.553Z,8.50
2019-03-27T03:24:52.594Z,8.50
2019-03-27T03:27:20.738Z,8.40
2019-03-27T03:29:47.750Z,8.40
2019-03-27T03:32:14.786Z,8.40
2019-03-27T03:34:41.757Z,8.40
2019-03-27T03:37:08.821Z,8.40
2019-03-27T03:39:35.871Z,8.40
2019-03-27T03:42:02.910Z,8.40
2019-03-27T03:44:30.817Z,8.40
2019-03-27T03:47:00.179Z,7.90
2019-03-27T03:49:26.805Z,8.30
2019-03-27T03:51:53.923Z,8.30
2019-03-27T03:54:21.797Z,8.30
2019-03-27T03:56:51.490Z,8.30
2019-03-27T03:59:20.579Z,8.20
2019-03-27T04:01:51.308Z,8.20
2019-03-27T04:04:21.168Z,8.20
2019-03-27T04:06:48.231Z,8.20
2019-03-27T04:09:15.311Z,8.20
2019-03-27T04:11:42.417Z,8.20
2019-03-27T04:14:09.562Z,8.10
2019-03-27T04:16:36.631Z,8.20
2019-03-27T04:19:03.732Z,8.10
2019-03-27T04:21:30.831Z,8.10
2019-03-27T04:23:57.925Z,8.20
2019-03-27T04:26:24.986Z,8.10
2019-03-27T04:28:51.988Z,8.10
2019-03-27T04:31:19.017Z,8.20
2019-03-27T04:33:46.128Z,8.20
2019-03-27T04:36:13.181Z,8.20
2019-03-27T04:38:40.249Z,8.20
2019-03-27T04:41:07.290Z,8.20
2019-03-27T04:43:34.309Z,8.20
2019-03-27T04:46:01.375Z,8.20
2019-03-27T04:48:30.809Z,8.30
2019-03-27T04:50:57.782Z,8.30
2019-03-27T04:53:24.802Z,8.30
2019-03-27T04:55:51.861Z,8.30
2019-03-27T04:58:18.964Z,8.30
2019-03-27T05:00:45.977Z,8.40
2019-03-27T05:03:13.077Z,8.40
2019-03-27T05:05:40.097Z,8.40
2019-03-27T05:08:07.287Z,8.40
2019-03-27T05:10:34.313Z,8.40
2019-03-27T05:13:01.502Z,8.40
2019-03-27T05:15:28.537Z,8.50
2019-03-27T05:17:55.724Z,8.60
2019-03-27T05:20:22.855Z,8.60
2019-03-27T05:22:50.025Z,8.60
2019-03-27T05:25:17.172Z,8.60
2019-03-27T05:27:44.452Z,8.60
2019-03-27T05:30:11.822Z,8.70
2019-03-27T05:32:39.052Z,8.70
2019-03-27T05:35:06.825Z,8.70
2019-03-27T05:37:33.958Z,8.70
2019-03-27T05:40:01.386Z,8.70
2019-03-27T05:42:28.506Z,8.80
2019-03-27T05:44:56.114Z,8.90
2019-03-27T05:47:23.194Z,8.80
2019-03-27T05:49:50.210Z,8.80
2019-03-27T05:52:17.221Z,8.80
2019-03-27T05:54:44.255Z,8.80
2019-03-27T05:57:11.398Z,8.80
2019-03-27T05:59:38.398Z,8.80
2019-03-27T06:02:05.478Z,8.80
2019-03-27T06:04:33.489Z,8.80
2019-03-27T06:07:00.623Z,8.90
2019-03-27T06:09:27.596Z,8.90
2019-03-27T06:11:54.805Z,8.90
2019-03-27T06:14:21.838Z,8.90
2019-03-27T06:16:49.937Z,8.80
2019-03-27T06:19:16.929Z,8.80
2019-03-27T06:21:44.534Z,8.70
2019-03-27T06:24:11.592Z,8.80
2019-03-27T06:26:38.660Z,8.70
2019-03-27T06:29:05.706Z,8.80
2019-03-27T06:31:33.061Z,8.80
2019-03-27T06:34:00.189Z,8.80
2019-03-27T06:36:27.347Z,8.80
2019-03-27T06:38:54.342Z,8.80
2019-03-27T06:41:21.321Z,8.90
2019-03-27T06:43:48.437Z,8.90
2019-03-27T06:46:15.405Z,8.90
2019-03-27T06:48:42.549Z,8.90
2019-03-27T06:51:09.573Z,8.90
2019-03-27T06:53:36.597Z,9.00
2019-03-27T06:56:03.823Z,9.00
2019-03-27T06:58:31.844Z,9.00
2019-03-27T07:00:58.998Z,9.10
2019-03-27T07:03:26.116Z,9.10
2019-03-27T07:05:53.294Z,9.10
2019-03-27T07:08:20.537Z,9.10
2019-03-27T07:10:47.674Z,9.10
2019-03-27T07:13:14.847Z,9.10
2019-03-27T07:15:41.897Z,9.20
2019-03-27T07:18:08.929Z,9.30
2019-03-27T07:20:36.950Z,9.30
2019-03-27T07:23:04.868Z,9.30
2019-03-27T07:25:31.869Z,9.40
2019-03-27T07:27:58.950Z,9.50
2019-03-27T07:30:25.922Z,9.50
2019-03-27T07:32:52.968Z,9.60
2019-03-27T07:35:20.029Z,9.60
2019-03-27T07:37:47.125Z,9.70
2019-03-27T07:40:14.269Z,9.70
2019-03-27T07:42:41.314Z,9.70
2019-03-27T07:45:08.742Z,9.70
2019-03-27T07:47:35.867Z,9.60
2019-03-27T07:50:05.550Z,9.70
2019-03-27T07:52:32.744Z,9.70
2019-03-27T07:54:59.813Z,9.70
2019-03-27T07:57:26.801Z,9.80
2019-03-27T07:59:53.981Z,9.90
2019-03-27T08:02:21.067Z,10.00
2019-03-27T08:04:48.274Z,10.10
2019-03-27T08:07:26.350Z,10.20
2019-03-27T08:09:44.287Z,10.30
2019-03-27T08:12:11.253Z,10.40
2019-03-27T08:14:38.281Z,10.40
2019-03-27T08:17:05.321Z,10.50
2019-03-27T08:19:32.409Z,10.50
2019-03-27T08:21:59.433Z,10.50
2019-03-27T08:24:26.518Z,10.50
2019-03-27T08:26:55.340Z,10.40
2019-03-27T08:29:22.461Z,10.40
2019-03-27T08:31:49.541Z,10.50
2019-03-27T08:34:16.573Z,10.50
2019-03-27T08:36:43.594Z,10.60
2019-03-27T08:39:10.769Z,10.70
2019-03-27T08:41:37.809Z,10.80
2019-03-27T08:44:04.835Z,10.90
2019-03-27T08:46:31.832Z,10.90
2019-03-27T08:48:58.941Z,10.90
2019-03-27T08:51:25.954Z,11.00
2019-03-27T08:53:53.910Z,11.10
2019-03-27T08:56:20.921Z,11.40
2019-03-27T08:58:48.067Z,11.70
2019-03-27T09:01:15.082Z,11.60
2019-03-27T09:03:43.022Z,11.70
2019-03-27T09:06:10.037Z,11.70
2019-03-27T09:08:37.093Z,11.90
2019-03-27T09:11:04.752Z,11.90
2019-03-27T09:13:32.068Z,12.00
2019-03-27T09:16:00.071Z,12.10
2019-03-27T09:18:28.078Z,12.40
2019-03-27T09:20:55.090Z,12.70
2019-03-27T09:23:22.191Z,12.80
2019-03-27T09:25:49.166Z,12.80
2019-03-27T09:28:16.193Z,12.70
2019-03-27T09:30:43.197Z,12.80
2019-03-27T09:33:10.257Z,13.10
2019-03-27T09:35:37.381Z,13.20
2019-03-27T09:38:04.521Z,13.40
2019-03-27T09:40:31.531Z,13.50
2019-03-27T09:42:58.625Z,13.70
2019-03-27T09:45:25.694Z,14.00
2019-03-27T09:47:52.770Z,14.40
2019-03-27T09:50:19.777Z,14.30
2019-03-27T09:52:47.777Z,14.40
2019-03-27T09:55:14.764Z,14.60
2019-03-27T09:57:41.957Z,14.70
2019-03-27T10:00:09.773Z,14.60
2019-03-27T10:02:36.937Z,14.40
2019-03-27T10:05:06.110Z,14.20
2019-03-27T10:07:33.105Z,13.80
2019-03-27T10:10:00.365Z,13.60
2019-03-27T10:12:27.599Z,13.70
2019-03-27T10:14:54.793Z,13.80
2019-03-27T10:17:21.757Z,13.80
2019-03-27T10:20:02.563Z,13.90
2019-03-27T10:22:17.670Z,14.00
2019-03-27T10:24:44.757Z,14.10
2019-03-27T10:27:11.771Z,14.00
2019-03-27T10:29:38.819Z,14.00
2019-03-27T10:32:05.859Z,14.20
2019-03-27T10:34:33.165Z,14.30
2019-03-27T10:37:00.168Z,14.10
2019-03-27T10:39:27.318Z,14.10
2019-03-27T10:41:54.354Z,14.10
2019-03-27T10:44:21.419Z,14.20
2019-03-27T10:46:48.383Z,14.10
2019-03-27T10:49:15.468Z,14.10
2019-03-27T10:51:42.444Z,14.30
2019-03-27T10:54:09.699Z,14.50
2019-03-27T10:56:36.654Z,14.80
2019-03-27T10:59:03.731Z,15.20
2019-03-27T11:01:33.053Z,15.50
2019-03-27T11:04:00.174Z,15.80
2019-03-27T11:06:27.145Z,15.80
2019-03-27T11:08:54.343Z,15.70
2019-03-27T11:11:22.169Z,15.80
2019-03-27T11:13:49.267Z,15.90
2019-03-27T11:16:17.077Z,15.80
2019-03-27T11:18:44.294Z,15.50
2019-03-27T11:21:11.281Z,15.40
2019-03-27T11:23:38.419Z,15.40
2019-03-27T11:26:05.405Z,15.50
2019-03-27T11:28:32.513Z,15.30
2019-03-27T11:30:59.601Z,15.40
2019-03-27T11:33:28.968Z,15.50
2019-03-27T11:35:55.497Z,15.40
2019-03-27T11:38:22.713Z,15.20
2019-03-27T11:40:49.677Z,14.90
2019-03-27T11:43:17.724Z,14.70
2019-03-27T11:45:44.857Z,14.60
2019-03-27T11:48:11.934Z,14.70
2019-03-27T11:50:45.229Z,14.80
2019-03-27T11:53:07.859Z,14.80
2019-03-27T11:55:34.977Z,14.50
2019-03-27T11:58:02.041Z,14.20
2019-03-27T12:00:29.169Z,14.10
2019-03-27T12:02:56.277Z,13.90
2019-03-27T12:05:23.393Z,13.80
2019-03-27T12:07:50.605Z,13.90
2019-03-27T12:10:17.829Z,13.90
2019-03-27T12:12:53.414Z,13.80
2019-03-27T12:15:37.234Z,13.80
2019-03-27T12:18:06.094Z,13.90
2019-03-27T12:20:35.260Z,14.10
2019-03-27T12:23:02.633Z,14.10
2019-03-27T12:25:30.561Z,14.00
2019-03-27T12:27:57.677Z,14.10
2019-03-27T12:30:24.837Z,14.10
2019-03-27T12:32:52.080Z,14.20
2019-03-27T12:35:19.236Z,14.30
2019-03-27T12:37:47.141Z,14.30
2019-03-27T12:40:14.300Z,14.30
2019-03-27T12:42:41.414Z,14.30
2019-03-27T12:45:08.638Z,14.70
2019-03-27T12:47:35.773Z,14.70
2019-03-27T12:50:04.784Z,15.00
2019-03-27T12:52:31.932Z,15.10
2019-03-27T12:54:59.118Z,14.90
2019-03-27T12:57:27.045Z,14.90
2019-03-27T12:59:54.286Z,14.70
2019-03-27T13:02:21.478Z,14.70
2019-03-27T13:04:49.130Z,14.80
2019-03-27T13:07:16.249Z,14.90
2019-03-27T13:09:43.293Z,15.00
2019-03-27T13:12:10.331Z,15.10
2019-03-27T13:14:37.355Z,15.00
2019-03-27T13:17:04.482Z,15.00
2019-03-27T13:19:32.570Z,14.80
2019-03-27T13:21:59.596Z,14.80
2019-03-27T13:24:26.601Z,14.70
2019-03-27T13:26:53.686Z,14.70
2019-03-27T13:29:20.722Z,14.70
2019-03-27T13:31:47.712Z,14.80
2019-03-27T13:34:14.724Z,15.00
2019-03-27T13:36:44.331Z,15.10
2019-03-27T13:39:11.305Z,15.10
2019-03-27T13:41:38.309Z,15.10
2019-03-27T13:44:05.334Z,15.30
2019-03-27T13:46:32.324Z,15.30
2019-03-27T13:48:59.381Z,15.20
2019-03-27T13:51:39.527Z,15.30
2019-03-27T13:53:55.249Z,15.30
2019-03-27T13:56:22.593Z,15.30
2019-03-27T13:58:50.016Z,15.60
2019-03-27T14:01:17.013Z,15.50
2019-03-27T14:03:44.106Z,15.60
2019-03-27T14:06:11.156Z,15.30
2019-03-27T14:08:39.048Z,15.30
2019-03-27T14:11:06.171Z,15.50
2019-03-27T14:13:33.260Z,15.40
2019-03-27T14:16:00.386Z,15.30
2019-03-27T14:18:27.475Z,15.30
2019-03-27T14:20:54.529Z,15.30
2019-03-27T14:23:21.593Z,15.40
2019-03-27T14:25:48.611Z,15.50
2019-03-27T14:28:16.544Z,15.80
2019-03-27T14:30:52.043Z,16.30
2019-03-27T14:33:19.339Z,16.50
2019-03-27T14:35:46.387Z,16.80
2019-03-27T14:38:13.487Z,16.90
2019-03-27T14:40:40.549Z,16.50
2019-03-27T14:43:08.597Z,16.00
2019-03-27T14:45:35.802Z,15.70
2019-03-27T14:48:03.120Z,15.70
2019-03-27T14:50:30.361Z,15.50
2019-03-27T14:52:57.505Z,15.30
2019-03-27T14:55:24.641Z,15.30
2019-03-27T14:57:52.822Z,15.50
2019-03-27T15:00:20.081Z,15.50
2019-03-27T15:02:48.095Z,15.30
2019-03-27T15:05:15.289Z,15.50
2019-03-27T15:07:42.341Z,15.50
2019-03-27T15:10:10.159Z,15.50
2019-03-27T15:12:37.524Z,15.40
2019-03-27T15:15:06.294Z,15.20
2019-03-27T15:17:33.318Z,15.20
2019-03-27T15:20:00.385Z,15.10
2019-03-27T15:22:27.422Z,15.10
2019-03-27T15:24:54.461Z,15.00
2019-03-27T15:27:21.489Z,15.10
2019-03-27T15:29:50.949Z,14.90
2019-03-27T15:32:19.295Z,14.80
2019-03-27T15:34:46.406Z,14.70
2019-03-27T15:37:13.458Z,14.60
2019-03-27T15:39:42.827Z,14.40
2019-03-27T15:42:09.822Z,14.40
2019-03-27T15:44:36.896Z,14.40
2019-03-27T15:47:03.901Z,14.20
2019-03-27T15:49:31.976Z,14.10
2019-03-27T15:51:59.003Z,14.10
2019-03-27T15:54:26.053Z,14.00
2019-03-27T15:56:53.100Z,13.90
2019-03-27T15:59:22.514Z,13.80
2019-03-27T16:01:49.609Z,13.70
2019-03-27T16:04:16.779Z,13.70
2019-03-27T16:06:44.542Z,13.70
2019-03-27T16:09:13.345Z,13.60
2019-03-27T16:11:40.439Z,13.50
2019-03-27T16:14:07.425Z,13.50
2019-03-27T16:16:34.549Z,13.50
2019-03-27T16:19:01.509Z,13.50
2019-03-27T16:21:28.648Z,13.50
2019-03-27T16:24:05.864Z,13.40
2019-03-27T16:26:24.653Z,13.30
2019-03-27T16:28:51.602Z,13.40
2019-03-27T16:31:18.721Z,13.40
2019-03-27T16:33:51.221Z,13.40
2019-03-27T16:36:18.345Z,13.40
2019-03-27T16:38:45.340Z,13.30
2019-03-27T16:41:12.438Z,13.20
2019-03-27T16:43:40.264Z,13.20
2019-03-27T16:46:07.473Z,13.00
2019-03-27T16:48:34.436Z,12.90
2019-03-27T16:51:01.488Z,12.80
2019-03-27T16:53:28.516Z,12.80
2019-03-27T16:55:55.558Z,12.80
2019-03-27T16:58:22.577Z,12.70
2019-03-27T17:00:49.728Z,12.70
2019-03-27T17:03:19.109Z,12.60
2019-03-27T17:05:53.846Z,12.60
2019-03-27T17:08:16.347Z,12.50
2019-03-27T17:10:44.581Z,12.50
2019-03-27T17:13:11.745Z,12.40
2019-03-27T17:15:39.769Z,12.30
2019-03-27T17:18:06.777Z,12.30
2019-03-27T17:20:33.820Z,12.30
2019-03-27T17:23:00.883Z,12.20
2019-03-27T17:25:27.904Z,12.20
2019-03-27T17:27:55.840Z,12.20
2019-03-27T17:30:23.125Z,12.10
2019-03-27T17:32:50.188Z,12.00
2019-03-27T17:35:17.238Z,11.90
2019-03-27T17:37:44.405Z,11.80
2019-03-27T17:40:12.112Z,11.80
2019-03-27T17:42:39.273Z,11.80
2019-03-27T17:45:06.571Z,11.90
2019-03-27T17:47:33.879Z,12.00
2019-03-27T17:50:00.972Z,12.10
2019-03-27T17:52:27.985Z,12.10
2019-03-27T17:54:55.009Z,12.10
2019-03-27T17:57:22.484Z,12.00
2019-03-27T17:59:50.281Z,12.00
2019-03-27T18:02:17.393Z,11.90
2019-03-27T18:04:44.630Z,11.80
2019-03-27T18:07:11.753Z,11.70
2019-03-27T18:09:38.760Z,11.60
2019-03-27T18:12:05.823Z,11.50
2019-03-27T18:14:32.818Z,11.40
2019-03-27T18:16:59.944Z,11.30
2019-03-27T18:19:26.945Z,11.20
2019-03-27T18:22:06.769Z,11.10
2019-03-27T18:24:22.823Z,11.00
2019-03-27T18:26:49.987Z,11.00
2019-03-27T18:29:20.192Z,10.90
2019-03-27T18:31:49.136Z,10.90
2019-03-27T18:34:16.134Z,10.90
2019-03-27T18:36:43.282Z,10.80
2019-03-27T18:39:10.265Z,10.70
2019-03-27T18:41:37.729Z,10.70
2019-03-27T18:44:04.705Z,10.70
2019-03-27T18:46:31.809Z,10.70
2019-03-27T18:49:00.329Z,10.70
2019-03-27T18:51:27.354Z,10.70
2019-03-27T18:53:59.936Z,10.80
2019-03-27T18:56:23.381Z,10.70
2019-03-27T18:58:50.366Z,10.60
2019-03-27T19:01:17.470Z,10.60
2019-03-27T19:03:44.457Z,10.60
2019-03-27T19:06:11.492Z,10.50
2019-03-27T19:08:38.515Z,10.50
2019-03-27T19:11:05.590Z,10.50
2019-03-27T19:13:32.645Z,10.50
2019-03-27T19:15:59.798Z,10.50
2019-03-27T19:18:26.790Z,10.50
2019-03-27T19:20:53.946Z,10.40
2019-03-27T19:23:21.733Z,10.30
2019-03-27T19:25:48.874Z,10.20
2019-03-27T19:28:15.921Z,10.10
2019-03-27T19:30:43.038Z,10.00
2019-03-27T19:33:12.277Z,9.90
2019-03-27T19:35:39.421Z,9.80
2019-03-27T19:38:06.437Z,9.70
2019-03-27T19:40:33.462Z,9.60
2019-03-27T19:43:00.447Z,9.50
2019-03-27T19:45:27.774Z,9.40
2019-03-27T19:47:54.819Z,9.40
2019-03-27T19:50:22.051Z,9.30
2019-03-27T19:52:49.109Z,9.30
2019-03-27T19:55:16.321Z,9.20
2019-03-27T19:57:43.285Z,9.20
2019-03-27T20:00:11.230Z,9.20
2019-03-27T20:02:38.362Z,9.20
2019-03-27T20:05:06.283Z,9.20
2019-03-27T20:07:36.122Z,9.10
2019-03-27T20:10:03.757Z,9.10
2019-03-27T20:12:30.787Z,9.20
2019-03-27T20:15:11.243Z,9.10
2019-03-27T20:17:27.415Z,9.10
2019-03-27T20:19:54.652Z,9.10
2019-03-27T20:22:24.774Z,9.00
2019-03-27T20:24:52.856Z,8.90
2019-03-27T20:27:19.943Z,8.90
2019-03-27T20:29:47.163Z,8.90
2019-03-27T20:32:14.729Z,8.80
2019-03-27T20:34:41.886Z,8.70
2019-03-27T20:37:09.074Z,8.60
2019-03-27T20:39:36.185Z,8.50
2019-03-27T20:42:03.550Z,8.50
2019-03-27T20:44:30.645Z,8.60
2019-03-27T20:46:57.693Z,8.60
2019-03-27T20:49:24.777Z,8.70
2019-03-27T20:51:54.810Z,8.50
2019-03-27T20:54:20.549Z,8.30
2019-03-27T20:56:47.666Z,8.30
2019-03-27T20:59:14.734Z,8.30
2019-03-27T21:01:41.689Z,8.20
2019-03-27T21:04:08.695Z,8.20
2019-03-27T21:06:35.698Z,8.10
2019-03-27T21:09:04.780Z,8.00
2019-03-27T21:11:32.032Z,8.00
2019-03-27T21:13:59.227Z,7.90
2019-03-27T21:16:26.246Z,7.70
2019-03-27T21:18:53.361Z,7.50
2019-03-27T21:21:20.393Z,7.40
2019-03-27T21:23:47.407Z,7.30
2019-03-27T21:26:14.554Z,7.30
2019-03-27T21:28:41.569Z,7.20
2019-03-27T21:31:08.535Z,7.20
2019-03-27T21:33:35.565Z,7.10
2019-03-27T21:36:02.557Z,7.10
2019-03-27T21:38:29.548Z,7.10
2019-03-27T21:40:56.648Z,7.10
2019-03-27T21:43:23.787Z,7.10
2019-03-27T21:45:56.917Z,7.10
2019-03-27T21:48:24.163Z,7.00
2019-03-27T21:50:51.161Z,7.10
2019-03-27T21:53:18.165Z,6.70
2019-03-27T21:55:45.305Z,6.60
2019-03-27T21:58:12.352Z,6.60
2019-03-27T22:00:39.635Z,6.50
2019-03-27T22:03:06.965Z,6.40
2019-03-27T22:05:33.938Z,6.40
2019-03-27T22:08:00.965Z,6.30
2019-03-27T22:10:27.988Z,6.30
2019-03-27T22:12:55.074Z,6.30
2019-03-27T22:15:22.085Z,6.40
2019-03-27T22:17:49.133Z,6.50
2019-03-27T22:20:16.124Z,6.50
2019-03-27T22:22:43.180Z,6.70
2019-03-27T22:25:10.187Z,6.10
2019-03-27T22:27:37.411Z,6.00
2019-03-27T22:30:06.705Z,6.00
2019-03-27T22:32:33.722Z,6.00
2019-03-27T22:35:00.729Z,5.80
2019-03-27T22:37:27.733Z,5.60
2019-03-27T22:39:54.962Z,5.60
2019-03-27T22:42:22.056Z,5.50
2019-03-27T22:44:49.023Z,5.40
2019-03-27T22:47:16.032Z,5.40
2019-03-27T22:49:43.026Z,5.40
2019-03-27T22:52:10.053Z,5.30
2019-03-27T22:54:37.071Z,5.40
2019-03-27T22:57:04.116Z,5.50
2019-03-27T22:59:31.109Z,5.60
2019-03-27T23:01:58.147Z,5.60
2019-03-27T23:04:25.261Z,5.60
2019-03-27T23:06:52.311Z,5.40
2019-03-27T23:09:19.335Z,5.40
2019-03-27T23:11:48.072Z,5.40
2019-03-27T23:14:15.088Z,5.50
2019-03-27T23:16:42.162Z,5.50
2019-03-27T23:19:09.385Z,5.40
2019-03-27T23:21:36.489Z,5.60
2019-03-27T23:24:03.554Z,5.70
2019-03-27T23:26:31.995Z,5.60
2019-03-27T23:28:59.016Z,5.70
2019-03-27T23:31:26.144Z,5.60
2019-03-27T23:33:53.136Z,5.60
2019-03-27T23:36:20.194Z,5.40
2019-03-27T23:38:47.238Z,5.30
2019-03-27T23:41:14.332Z,5.30
2019-03-27T23:43:41.422Z,5.30
2019-03-27T23:46:08.585Z,5.30
2019-03-27T23:48:35.631Z,5.20
2019-03-27T23:51:03.048Z,5.10
2019-03-27T23:53:30.117Z,5.10
2019-03-27T23:55:57.255Z,5.00
2019-03-27T23:58:24.326Z,4.90
